sensor_id;sensor_type;location;lat;lon;timestamp;P1;durP1;ratioP1;P2;durP2;ratioP2
64560;SDS011;50960;46.838;16.838;2022-10-22T03:02:30;18.40;;;13.52;;
64560;SDS011;50960;46.838;16.838;2022-10-22T03:04:57;16.90;;;13.77;;
64560;SDS011;50960;46.838;16.838;2022-10-22T03:07:23;17.35;;;14.35;;
64560;SDS011;50960;46.838;16.838;2022-10-22T03:09:49;16.92;;;14.45;;
64560;SDS011;50960;46.838;16.838;2022-10-22T03:12:15;16.35;;;13.77;;
64560;SDS011;50960;46.838;16.838;2022-10-22T03:14:42;16.92;;;14.25;;
64560;SDS011;50960;46.838;16.838;2022-10-22T03:17:08;18.02;;;14.32;;
64560;SDS011;50960;46.838;16.838;2022-10-22T03:19:34;18.27;;;14.43;;
64560;SDS011;50960;46.838;16.838;2022-10-22T03:22:05;15.25;;;13.65;;
64560;SDS011;50960;46.838;16.838;2022-10-22T03:24:40;15.85;;;13.77;;
64560;SDS011;50960;46.838;16.838;2022-10-22T03:27:09;15.70;;;13.68;;
64560;SDS011;50960;46.838;16.838;2022-10-22T03:29:38;16.30;;;14.60;;
64560;SDS011;50960;46.838;16.838;2022-10-22T03:32:06;16.63;;;13.80;;
64560;SDS011;50960;46.838;16.838;2022-10-22T03:34:32;17.52;;;13.13;;
64560;SDS011;50960;46.838;16.838;2022-10-22T03:36:59;19.35;;;13.88;;
64560;SDS011;50960;46.838;16.838;2022-10-22T03:39:27;16.48;;;14.63;;
64560;SDS011;50960;46.838;16.838;2022-10-22T03:41:55;17.17;;;14.00;;
64560;SDS011;50960;46.838;16.838;2022-10-22T03:44:22;20.15;;;14.20;;
64560;SDS011;50960;46.838;16.838;2022-10-22T03:46:49;15.27;;;13.68;;
64560;SDS011;50960;46.838;16.838;2022-10-22T03:49:15;19.83;;;15.40;;
64560;SDS011;50960;46.838;16.838;2022-10-22T03:51:41;15.40;;;13.80;;
64560;SDS011;50960;46.838;16.838;2022-10-22T03:54:08;16.58;;;13.63;;
64560;SDS011;50960;46.838;16.838;2022-10-22T03:56:34;21.13;;;14.18;;
64560;SDS011;50960;46.838;16.838;2022-10-22T03:59:00;16.70;;;13.40;;
64560;SDS011;50960;46.838;16.838;2022-10-22T04:01:28;15.40;;;13.82;;
64560;SDS011;50960;46.838;16.838;2022-10-22T04:03:55;16.00;;;13.35;;
64560;SDS011;50960;46.838;16.838;2022-10-22T04:06:22;15.35;;;13.68;;
64560;SDS011;50960;46.838;16.838;2022-10-22T04:08:48;16.90;;;13.57;;
64560;SDS011;50960;46.838;16.838;2022-10-22T04:11:15;22.65;;;13.68;;
64560;SDS011;50960;46.838;16.838;2022-10-22T04:13:41;25.70;;;13.88;;
64560;SDS011;50960;46.838;16.838;2022-10-22T04:16:09;20.92;;;14.07;;
64560;SDS011;50960;46.838;16.838;2022-10-22T04:18:36;16.90;;;13.63;;
64560;SDS011;50960;46.838;16.838;2022-10-22T04:21:03;17.02;;;13.75;;
64560;SDS011;50960;46.838;16.838;2022-10-22T04:23:30;15.07;;;13.10;;
64560;SDS011;50960;46.838;16.838;2022-10-22T04:25:57;16.95;;;13.93;;
64560;SDS011;50960;46.838;16.838;2022-10-22T04:28:24;18.15;;;13.98;;
64560;SDS011;50960;46.838;16.838;2022-10-22T04:30:50;16.92;;;14.07;;
64560;SDS011;50960;46.838;16.838;2022-10-22T04:33:16;16.30;;;13.70;;
64560;SDS011;50960;46.838;16.838;2022-10-22T04:35:43;15.48;;;13.82;;
64560;SDS011;50960;46.838;16.838;2022-10-22T04:38:09;15.52;;;13.93;;
64560;SDS011;50960;46.838;16.838;2022-10-22T04:40:35;14.80;;;13.15;;
64560;SDS011;50960;46.838;16.838;2022-10-22T04:43:02;16.65;;;14.00;;
64560;SDS011;50960;46.838;16.838;2022-10-22T04:45:28;16.10;;;14.40;;
64560;SDS011;50960;46.838;16.838;2022-10-22T04:47:54;19.58;;;17.48;;
64560;SDS011;50960;46.838;16.838;2022-10-22T04:50:21;16.88;;;14.63;;
64560;SDS011;50960;46.838;16.838;2022-10-22T04:52:47;18.00;;;14.20;;
64560;SDS011;50960;46.838;16.838;2022-10-22T04:55:13;18.63;;;14.50;;
64560;SDS011;50960;46.838;16.838;2022-10-22T04:57:40;17.75;;;14.60;;
64560;SDS011;50960;46.838;16.838;2022-10-22T05:00:06;16.83;;;13.55;;
64560;SDS011;50960;46.838;16.838;2022-10-22T05:02:33;14.98;;;13.30;;
64560;SDS011;50960;46.838;16.838;2022-10-22T05:04:59;17.40;;;13.70;;
64560;SDS011;50960;46.838;16.838;2022-10-22T05:07:25;19.40;;;15.85;;
64560;SDS011;50960;46.838;16.838;2022-10-22T05:09:52;19.15;;;14.98;;
64560;SDS011;50960;46.838;16.838;2022-10-22T05:12:18;21.90;;;13.68;;
64560;SDS011;50960;46.838;16.838;2022-10-22T05:14:44;17.45;;;14.60;;
64560;SDS011;50960;46.838;16.838;2022-10-22T05:17:10;63.78;;;40.95;;
64560;SDS011;50960;46.838;16.838;2022-10-22T05:19:37;18.30;;;14.10;;
64560;SDS011;50960;46.838;16.838;2022-10-22T05:22:03;15.48;;;12.90;;
64560;SDS011;50960;46.838;16.838;2022-10-22T05:24:30;15.80;;;12.98;;
64560;SDS011;50960;46.838;16.838;2022-10-22T05:26:58;19.48;;;13.05;;
64560;SDS011;50960;46.838;16.838;2022-10-22T05:29:25;16.42;;;13.35;;
64560;SDS011;50960;46.838;16.838;2022-10-22T05:31:52;19.17;;;13.57;;
64560;SDS011;50960;46.838;16.838;2022-10-22T05:34:18;17.55;;;14.05;;
64560;SDS011;50960;46.838;16.838;2022-10-22T05:36:44;17.40;;;13.88;;
64560;SDS011;50960;46.838;16.838;2022-10-22T05:39:11;16.38;;;13.43;;
64560;SDS011;50960;46.838;16.838;2022-10-22T05:41:37;13.10;;;11.48;;
64560;SDS011;50960;46.838;16.838;2022-10-22T05:44:04;17.05;;;14.05;;
64560;SDS011;50960;46.838;16.838;2022-10-22T05:46:32;14.52;;;12.93;;
64560;SDS011;50960;46.838;16.838;2022-10-22T05:49:01;14.57;;;12.60;;
64560;SDS011;50960;46.838;16.838;2022-10-22T05:51:30;17.60;;;14.05;;
64560;SDS011;50960;46.838;16.838;2022-10-22T05:53:58;14.80;;;13.10;;
64560;SDS011;50960;46.838;16.838;2022-10-22T05:56:26;16.23;;;12.93;;
64560;SDS011;50960;46.838;16.838;2022-10-22T05:58:53;26.48;;;21.58;;
64560;SDS011;50960;46.838;16.838;2022-10-22T06:01:20;19.40;;;14.75;;
64560;SDS011;50960;46.838;16.838;2022-10-22T06:03:48;15.43;;;13.23;;
64560;SDS011;50960;46.838;16.838;2022-10-22T06:09:47;14.95;;;12.25;;
64560;SDS011;50960;46.838;16.838;2022-10-22T06:11:52;13.27;;;11.88;;
64560;SDS011;50960;46.838;16.838;2022-10-22T06:14:19;11.82;;;10.63;;
64560;SDS011;50960;46.838;16.838;2022-10-22T06:16:46;11.75;;;9.93;;
64560;SDS011;50960;46.838;16.838;2022-10-22T06:19:14;12.18;;;9.38;;
64560;SDS011;50960;46.838;16.838;2022-10-22T06:21:41;6.25;;;5.10;;
64560;SDS011;50960;46.838;16.838;2022-10-22T06:24:08;6.43;;;5.50;;
64560;SDS011;50960;46.838;16.838;2022-10-22T06:26:35;5.65;;;4.90;;
64560;SDS011;50960;46.838;16.838;2022-10-22T06:29:02;6.43;;;4.32;;
64560;SDS011;50960;46.838;16.838;2022-10-22T06:31:28;9.40;;;4.20;;
64560;SDS011;50960;46.838;16.838;2022-10-22T06:34:01;5.18;;;3.97;;
64560;SDS011;50960;46.838;16.838;2022-10-22T06:36:28;4.47;;;4.07;;
64560;SDS011;50960;46.838;16.838;2022-10-22T06:38:55;4.32;;;3.92;;
64560;SDS011;50960;46.838;16.838;2022-10-22T06:41:21;4.07;;;3.67;;
64560;SDS011;50960;46.838;16.838;2022-10-22T06:43:48;4.82;;;3.92;;
64560;SDS011;50960;46.838;16.838;2022-10-22T06:46:16;5.68;;;4.30;;
64560;SDS011;50960;46.838;16.838;2022-10-22T06:48:47;4.40;;;4.00;;
64560;SDS011;50960;46.838;16.838;2022-10-22T06:51:18;5.63;;;4.35;;
64560;SDS011;50960;46.838;16.838;2022-10-22T06:53:45;4.63;;;3.92;;
64560;SDS011;50960;46.838;16.838;2022-10-22T06:56:17;5.22;;;4.40;;
64560;SDS011;50960;46.838;16.838;2022-10-22T06:58:48;7.53;;;4.10;;
64560;SDS011;50960;46.838;16.838;2022-10-22T07:01:16;4.75;;;4.30;;
64560;SDS011;50960;46.838;16.838;2022-10-22T07:03:48;6.78;;;4.57;;
64560;SDS011;50960;46.838;16.838;2022-10-22T07:06:16;4.90;;;4.50;;
64560;SDS011;50960;46.838;16.838;2022-10-22T07:08:43;5.38;;;4.28;;
64560;SDS011;50960;46.838;16.838;2022-10-22T07:11:13;5.82;;;4.45;;
64560;SDS011;50960;46.838;16.838;2022-10-22T07:14:06;6.65;;;4.45;;
64560;SDS011;50960;46.838;16.838;2022-10-22T07:16:33;6.80;;;4.43;;
64560;SDS011;50960;46.838;16.838;2022-10-22T07:19:00;6.93;;;4.32;;
64560;SDS011;50960;46.838;16.838;2022-10-22T07:21:27;5.68;;;4.07;;
64560;SDS011;50960;46.838;16.838;2022-10-22T07:23:54;4.80;;;4.28;;
64560;SDS011;50960;46.838;16.838;2022-10-22T07:26:21;4.88;;;4.43;;
64560;SDS011;50960;46.838;16.838;2022-10-22T07:28:50;4.60;;;4.20;;
64560;SDS011;50960;46.838;16.838;2022-10-22T07:31:17;6.13;;;4.53;;
64560;SDS011;50960;46.838;16.838;2022-10-22T07:33:44;5.07;;;4.57;;
64560;SDS011;50960;46.838;16.838;2022-10-22T07:36:12;4.95;;;4.45;;
64560;SDS011;50960;46.838;16.838;2022-10-22T07:38:42;5.40;;;4.90;;
64560;SDS011;50960;46.838;16.838;2022-10-22T07:41:10;6.03;;;4.80;;
64560;SDS011;50960;46.838;16.838;2022-10-22T07:43:37;6.18;;;4.55;;
64560;SDS011;50960;46.838;16.838;2022-10-22T07:46:03;5.18;;;4.72;;
64560;SDS011;50960;46.838;16.838;2022-10-22T07:48:30;6.95;;;5.20;;
64560;SDS011;50960;46.838;16.838;2022-10-22T07:50:56;7.40;;;5.03;;
64560;SDS011;50960;46.838;16.838;2022-10-22T07:53:22;5.28;;;4.70;;
64560;SDS011;50960;46.838;16.838;2022-10-22T07:55:58;4.88;;;4.38;;
64560;SDS011;50960;46.838;16.838;2022-10-22T07:58:24;4.90;;;4.50;;
64560;SDS011;50960;46.838;16.838;2022-10-22T08:00:53;6.90;;;4.80;;
64560;SDS011;50960;46.838;16.838;2022-10-22T08:03:21;5.13;;;4.63;;
64560;SDS011;50960;46.838;16.838;2022-10-22T08:05:47;6.30;;;4.82;;
64560;SDS011;50960;46.838;16.838;2022-10-22T08:08:14;5.75;;;4.63;;
64560;SDS011;50960;46.838;16.838;2022-10-22T08:10:41;5.63;;;4.70;;
64560;SDS011;50960;46.838;16.838;2022-10-22T08:13:07;6.82;;;4.60;;
64560;SDS011;50960;46.838;16.838;2022-10-22T08:15:34;5.55;;;4.30;;
64560;SDS011;50960;46.838;16.838;2022-10-22T08:18:00;7.03;;;4.82;;
64560;SDS011;50960;46.838;16.838;2022-10-22T08:20:26;5.65;;;4.10;;
64560;SDS011;50960;46.838;16.838;2022-10-22T08:22:53;9.02;;;5.28;;
64560;SDS011;50960;46.838;16.838;2022-10-22T08:25:19;6.03;;;4.97;;
64560;SDS011;50960;46.838;16.838;2022-10-22T08:27:45;6.65;;;5.15;;
64560;SDS011;50960;46.838;16.838;2022-10-22T08:30:12;6.25;;;4.65;;
64560;SDS011;50960;46.838;16.838;2022-10-22T08:32:39;6.88;;;4.90;;
64560;SDS011;50960;46.838;16.838;2022-10-22T08:35:06;5.82;;;4.40;;
64560;SDS011;50960;46.838;16.838;2022-10-22T08:37:32;6.93;;;4.38;;
64560;SDS011;50960;46.838;16.838;2022-10-22T08:39:59;5.30;;;4.80;;
64560;SDS011;50960;46.838;16.838;2022-10-22T08:45:11;10.88;;;4.60;;
64560;SDS011;50960;46.838;16.838;2022-10-22T08:50:16;9.75;;;6.50;;
64560;SDS011;50960;46.838;16.838;2022-10-22T08:55:15;6.95;;;5.82;;
64560;SDS011;50960;46.838;16.838;2022-10-22T08:57:45;6.60;;;5.68;;
64560;SDS011;50960;46.838;16.838;2022-10-22T09:06:04;6.70;;;5.68;;
64560;SDS011;50960;46.838;16.838;2022-10-22T09:08:36;9.88;;;5.70;;
64560;SDS011;50960;46.838;16.838;2022-10-22T09:13:56;11.40;;;5.80;;
64560;SDS011;50960;46.838;16.838;2022-10-22T09:16:26;6.22;;;5.15;;
64560;SDS011;50960;46.838;16.838;2022-10-22T09:22:03;6.00;;;5.30;;
64560;SDS011;50960;46.838;16.838;2022-10-22T09:24:37;7.75;;;5.72;;
64560;SDS011;50960;46.838;16.838;2022-10-22T09:27:10;5.35;;;4.85;;
64560;SDS011;50960;46.838;16.838;2022-10-22T09:29:42;7.35;;;4.60;;
64560;SDS011;50960;46.838;16.838;2022-10-22T09:32:09;6.35;;;4.90;;
64560;SDS011;50960;46.838;16.838;2022-10-22T09:34:35;5.47;;;4.50;;
64560;SDS011;50960;46.838;16.838;2022-10-22T09:37:03;9.35;;;5.63;;
64560;SDS011;50960;46.838;16.838;2022-10-22T09:39:43;9.02;;;5.88;;
64560;SDS011;50960;46.838;16.838;2022-10-22T09:42:13;7.88;;;5.43;;
64560;SDS011;50960;46.838;16.838;2022-10-22T09:44:41;7.38;;;5.00;;
64560;SDS011;50960;46.838;16.838;2022-10-22T09:52:38;8.57;;;5.90;;
64560;SDS011;50960;46.838;16.838;2022-10-22T09:55:12;8.23;;;6.22;;
64560;SDS011;50960;46.838;16.838;2022-10-22T09:57:41;9.55;;;7.60;;
64560;SDS011;50960;46.838;16.838;2022-10-22T10:00:07;9.45;;;8.45;;
64560;SDS011;50960;46.838;16.838;2022-10-22T10:02:38;11.32;;;9.70;;
64560;SDS011;50960;46.838;16.838;2022-10-22T10:05:07;11.35;;;9.30;;
64560;SDS011;50960;46.838;16.838;2022-10-22T10:07:34;13.23;;;9.05;;
64560;SDS011;50960;46.838;16.838;2022-10-22T10:10:01;11.80;;;9.02;;
64560;SDS011;50960;46.838;16.838;2022-10-22T10:12:44;11.98;;;9.30;;
64560;SDS011;50960;46.838;16.838;2022-10-22T10:15:41;13.60;;;10.30;;
64560;SDS011;50960;46.838;16.838;2022-10-22T10:21:05;11.65;;;9.60;;
64560;SDS011;50960;46.838;16.838;2022-10-22T10:29:20;10.63;;;9.02;;
64560;SDS011;50960;46.838;16.838;2022-10-22T10:35:01;10.68;;;9.10;;
64560;SDS011;50960;46.838;16.838;2022-10-22T10:40:32;11.57;;;10.05;;
64560;SDS011;50960;46.838;16.838;2022-10-22T10:43:12;12.02;;;9.65;;
64560;SDS011;50960;46.838;16.838;2022-10-22T10:49:26;11.63;;;9.00;;
64560;SDS011;50960;46.838;16.838;2022-10-22T11:00:13;11.38;;;8.88;;
64560;SDS011;50960;46.838;16.838;2022-10-22T11:02:57;11.43;;;9.82;;
64560;SDS011;50960;46.838;16.838;2022-10-22T11:05:54;13.55;;;10.05;;
64560;SDS011;50960;46.838;16.838;2022-10-22T11:08:33;15.00;;;10.73;;
64560;SDS011;50960;46.838;16.838;2022-10-22T11:11:09;14.13;;;11.43;;
64560;SDS011;50960;46.838;16.838;2022-10-22T11:29:24;17.42;;;12.70;;
64560;SDS011;50960;46.838;16.838;2022-10-22T11:31:56;16.27;;;12.63;;
64560;SDS011;50960;46.838;16.838;2022-10-22T11:34:25;13.80;;;12.32;;
64560;SDS011;50960;46.838;16.838;2022-10-22T11:36:58;21.05;;;13.75;;
64560;SDS011;50960;46.838;16.838;2022-10-22T11:39:37;18.02;;;12.88;;
64560;SDS011;50960;46.838;16.838;2022-10-22T11:42:11;18.20;;;12.38;;
64560;SDS011;50960;46.838;16.838;2022-10-22T11:45:02;15.70;;;12.50;;
64560;SDS011;50960;46.838;16.838;2022-10-22T11:50:53;16.08;;;13.35;;
64560;SDS011;50960;46.838;16.838;2022-10-22T11:56:02;14.82;;;12.35;;
64560;SDS011;50960;46.838;16.838;2022-10-22T11:58:39;15.23;;;11.48;;
64560;SDS011;50960;46.838;16.838;2022-10-22T12:06:22;16.00;;;11.63;;
64560;SDS011;50960;46.838;16.838;2022-10-22T12:11:36;18.95;;;11.13;;
64560;SDS011;50960;46.838;16.838;2022-10-22T12:22:31;16.65;;;11.38;;
64560;SDS011;50960;46.838;16.838;2022-10-22T12:24:46;14.05;;;12.20;;
64560;SDS011;50960;46.838;16.838;2022-10-22T12:27:15;14.75;;;11.25;;
64560;SDS011;50960;46.838;16.838;2022-10-22T12:29:44;14.15;;;11.60;;
64560;SDS011;50960;46.838;16.838;2022-10-22T12:32:11;15.48;;;11.35;;
64560;SDS011;50960;46.838;16.838;2022-10-22T12:34:47;17.38;;;12.43;;
64560;SDS011;50960;46.838;16.838;2022-10-22T12:37:16;16.83;;;12.43;;
64560;SDS011;50960;46.838;16.838;2022-10-22T12:39:43;16.38;;;12.07;;
64560;SDS011;50960;46.838;16.838;2022-10-22T12:42:14;14.95;;;12.10;;
64560;SDS011;50960;46.838;16.838;2022-10-22T12:44:44;16.83;;;12.82;;
64560;SDS011;50960;46.838;16.838;2022-10-22T12:47:13;17.95;;;12.93;;
64560;SDS011;50960;46.838;16.838;2022-10-22T12:49:42;17.90;;;14.02;;
64560;SDS011;50960;46.838;16.838;2022-10-22T12:52:12;21.48;;;15.75;;
64560;SDS011;50960;46.838;16.838;2022-10-22T12:54:45;22.20;;;16.55;;
64560;SDS011;50960;46.838;16.838;2022-10-22T12:57:15;22.70;;;16.20;;
64560;SDS011;50960;46.838;16.838;2022-10-22T12:59:46;24.13;;;19.13;;
64560;SDS011;50960;46.838;16.838;2022-10-22T13:07:43;24.17;;;18.27;;
64560;SDS011;50960;46.838;16.838;2022-10-22T13:10:17;20.33;;;17.33;;
64560;SDS011;50960;46.838;16.838;2022-10-22T13:13:01;20.17;;;15.43;;
64560;SDS011;50960;46.838;16.838;2022-10-22T13:23:24;16.25;;;13.73;;
64560;SDS011;50960;46.838;16.838;2022-10-22T13:25:59;16.50;;;12.85;;
64560;SDS011;50960;46.838;16.838;2022-10-22T13:28:39;16.23;;;13.02;;
64560;SDS011;50960;46.838;16.838;2022-10-22T13:31:16;18.92;;;13.02;;
64560;SDS011;50960;46.838;16.838;2022-10-22T13:33:46;15.93;;;12.35;;
64560;SDS011;50960;46.838;16.838;2022-10-22T13:36:20;18.27;;;11.80;;
64560;SDS011;50960;46.838;16.838;2022-10-22T13:38:47;13.65;;;11.52;;
64560;SDS011;50960;46.838;16.838;2022-10-22T13:41:21;13.55;;;11.80;;
64560;SDS011;50960;46.838;16.838;2022-10-22T13:43:52;13.15;;;10.88;;
64560;SDS011;50960;46.838;16.838;2022-10-22T13:46:21;16.45;;;11.60;;
64560;SDS011;50960;46.838;16.838;2022-10-22T13:48:48;12.80;;;11.50;;
64560;SDS011;50960;46.838;16.838;2022-10-22T13:51:19;19.42;;;15.13;;
64560;SDS011;50960;46.838;16.838;2022-10-22T13:53:48;14.55;;;12.32;;
64560;SDS011;50960;46.838;16.838;2022-10-22T13:56:17;27.90;;;19.27;;
64560;SDS011;50960;46.838;16.838;2022-10-22T13:58:45;26.52;;;20.55;;
64560;SDS011;50960;46.838;16.838;2022-10-22T14:01:15;26.10;;;19.58;;
64560;SDS011;50960;46.838;16.838;2022-10-22T14:03:45;35.70;;;24.75;;
64560;SDS011;50960;46.838;16.838;2022-10-22T14:06:14;33.65;;;23.88;;
64560;SDS011;50960;46.838;16.838;2022-10-22T14:08:42;26.88;;;20.35;;
64560;SDS011;50960;46.838;16.838;2022-10-22T14:11:10;30.08;;;20.63;;
64560;SDS011;50960;46.838;16.838;2022-10-22T14:13:37;35.13;;;24.48;;
64560;SDS011;50960;46.838;16.838;2022-10-22T14:16:04;21.88;;;15.50;;
64560;SDS011;50960;46.838;16.838;2022-10-22T14:18:32;16.90;;;14.80;;
64560;SDS011;50960;46.838;16.838;2022-10-22T14:21:00;16.63;;;13.32;;
64560;SDS011;50960;46.838;16.838;2022-10-22T14:23:38;19.83;;;14.85;;
64560;SDS011;50960;46.838;16.838;2022-10-22T14:26:05;18.77;;;14.77;;
64560;SDS011;50960;46.838;16.838;2022-10-22T14:28:33;19.88;;;15.02;;
64560;SDS011;50960;46.838;16.838;2022-10-22T14:31:00;19.38;;;14.88;;
64560;SDS011;50960;46.838;16.838;2022-10-22T14:33:27;18.38;;;15.50;;
64560;SDS011;50960;46.838;16.838;2022-10-22T14:35:55;23.02;;;15.80;;
64560;SDS011;50960;46.838;16.838;2022-10-22T14:38:22;20.35;;;15.98;;
64560;SDS011;50960;46.838;16.838;2022-10-22T14:40:48;20.40;;;16.40;;
64560;SDS011;50960;46.838;16.838;2022-10-22T14:43:17;23.73;;;17.75;;
64560;SDS011;50960;46.838;16.838;2022-10-22T14:45:46;22.30;;;17.95;;
64560;SDS011;50960;46.838;16.838;2022-10-22T14:48:13;22.67;;;18.40;;
64560;SDS011;50960;46.838;16.838;2022-10-22T14:50:41;20.33;;;15.95;;
64560;SDS011;50960;46.838;16.838;2022-10-22T14:53:08;21.85;;;17.05;;
64560;SDS011;50960;46.838;16.838;2022-10-22T14:55:35;20.60;;;15.70;;
64560;SDS011;50960;46.838;16.838;2022-10-22T14:58:01;19.63;;;15.43;;
64560;SDS011;50960;46.838;16.838;2022-10-22T15:00:27;16.45;;;13.80;;
64560;SDS011;50960;46.838;16.838;2022-10-22T15:02:54;15.00;;;13.32;;
64560;SDS011;50960;46.838;16.838;2022-10-22T15:05:21;16.58;;;13.57;;
64560;SDS011;50960;46.838;16.838;2022-10-22T15:07:47;14.57;;;12.82;;
64560;SDS011;50960;46.838;16.838;2022-10-22T15:10:14;15.65;;;13.15;;
64560;SDS011;50960;46.838;16.838;2022-10-22T15:12:40;19.55;;;14.52;;
64560;SDS011;50960;46.838;16.838;2022-10-22T15:15:06;17.10;;;13.57;;
64560;SDS011;50960;46.838;16.838;2022-10-22T15:17:33;16.50;;;14.43;;
64560;SDS011;50960;46.838;16.838;2022-10-22T15:19:59;34.17;;;27.35;;
64560;SDS011;50960;46.838;16.838;2022-10-22T15:22:31;20.45;;;17.30;;
64560;SDS011;50960;46.838;16.838;2022-10-22T15:25:04;22.15;;;17.27;;
64560;SDS011;50960;46.838;16.838;2022-10-22T15:27:31;24.23;;;17.00;;
64560;SDS011;50960;46.838;16.838;2022-10-22T15:29:57;21.33;;;17.33;;
64560;SDS011;50960;46.838;16.838;2022-10-22T15:32:24;19.35;;;17.00;;
64560;SDS011;50960;46.838;16.838;2022-10-22T15:34:52;22.02;;;17.27;;
64560;SDS011;50960;46.838;16.838;2022-10-22T15:37:20;18.40;;;16.08;;
64560;SDS011;50960;46.838;16.838;2022-10-22T15:39:46;19.48;;;15.95;;
64560;SDS011;50960;46.838;16.838;2022-10-22T15:42:13;20.80;;;15.98;;
64560;SDS011;50960;46.838;16.838;2022-10-22T15:44:40;20.73;;;15.80;;
64560;SDS011;50960;46.838;16.838;2022-10-22T15:47:06;19.95;;;15.85;;
64560;SDS011;50960;46.838;16.838;2022-10-22T15:49:34;18.35;;;16.02;;
64560;SDS011;50960;46.838;16.838;2022-10-22T15:52:02;26.45;;;20.55;;
64560;SDS011;50960;46.838;16.838;2022-10-22T15:54:29;21.83;;;17.00;;
64560;SDS011;50960;46.838;16.838;2022-10-22T15:56:56;18.00;;;15.40;;
64560;SDS011;50960;46.838;16.838;2022-10-22T15:59:24;21.42;;;16.13;;
64560;SDS011;50960;46.838;16.838;2022-10-22T16:01:51;19.50;;;15.68;;
64560;SDS011;50960;46.838;16.838;2022-10-22T16:04:17;20.08;;;16.77;;
64560;SDS011;50960;46.838;16.838;2022-10-22T16:06:45;20.77;;;16.85;;
64560;SDS011;50960;46.838;16.838;2022-10-22T16:09:15;20.33;;;16.90;;
64560;SDS011;50960;46.838;16.838;2022-10-22T16:11:44;22.90;;;17.20;;
64560;SDS011;50960;46.838;16.838;2022-10-22T16:14:11;20.77;;;16.98;;
64560;SDS011;50960;46.838;16.838;2022-10-22T16:16:43;23.35;;;17.70;;
64560;SDS011;50960;46.838;16.838;2022-10-22T16:19:13;23.67;;;19.45;;
64560;SDS011;50960;46.838;16.838;2022-10-22T16:21:41;25.10;;;20.08;;
64560;SDS011;50960;46.838;16.838;2022-10-22T16:24:07;20.65;;;17.33;;
64560;SDS011;50960;46.838;16.838;2022-10-22T16:26:34;23.40;;;17.33;;
64560;SDS011;50960;46.838;16.838;2022-10-22T16:29:01;19.33;;;16.48;;
64560;SDS011;50960;46.838;16.838;2022-10-22T16:31:28;19.20;;;17.08;;
64560;SDS011;50960;46.838;16.838;2022-10-22T16:33:54;21.23;;;16.50;;
64560;SDS011;50960;46.838;16.838;2022-10-22T16:36:21;20.40;;;16.35;;
64560;SDS011;50960;46.838;16.838;2022-10-22T16:38:48;20.65;;;16.30;;
64560;SDS011;50960;46.838;16.838;2022-10-22T16:41:21;21.42;;;16.63;;
64560;SDS011;50960;46.838;16.838;2022-10-22T16:43:49;22.73;;;18.05;;
64560;SDS011;50960;46.838;16.838;2022-10-22T16:46:20;18.73;;;15.45;;
64560;SDS011;50960;46.838;16.838;2022-10-22T16:48:48;19.95;;;16.23;;
64560;SDS011;50960;46.838;16.838;2022-10-22T16:51:18;18.65;;;16.73;;
64560;SDS011;50960;46.838;16.838;2022-10-22T16:53:46;21.05;;;15.68;;
64560;SDS011;50960;46.838;16.838;2022-10-22T16:56:14;22.23;;;17.27;;
64560;SDS011;50960;46.838;16.838;2022-10-22T16:58:44;19.17;;;16.00;;
64560;SDS011;50960;46.838;16.838;2022-10-22T17:01:16;23.33;;;18.45;;
64560;SDS011;50960;46.838;16.838;2022-10-22T17:03:44;20.75;;;17.80;;
64560;SDS011;50960;46.838;16.838;2022-10-22T17:06:10;20.27;;;17.40;;
64560;SDS011;50960;46.838;16.838;2022-10-22T17:08:38;27.90;;;22.25;;
64560;SDS011;50960;46.838;16.838;2022-10-22T17:11:11;33.47;;;25.38;;
64560;SDS011;50960;46.838;16.838;2022-10-22T17:13:43;33.20;;;24.88;;
64560;SDS011;50960;46.838;16.838;2022-10-22T17:16:11;28.95;;;21.92;;
64560;SDS011;50960;46.838;16.838;2022-10-22T17:18:42;22.20;;;19.17;;
64560;SDS011;50960;46.838;16.838;2022-10-22T17:21:11;21.38;;;17.65;;
64560;SDS011;50960;46.838;16.838;2022-10-22T17:23:38;21.60;;;16.60;;
64560;SDS011;50960;46.838;16.838;2022-10-22T17:26:07;21.85;;;16.95;;
64560;SDS011;50960;46.838;16.838;2022-10-22T17:28:38;18.90;;;15.88;;
64560;SDS011;50960;46.838;16.838;2022-10-22T17:31:09;21.98;;;16.65;;
64560;SDS011;50960;46.838;16.838;2022-10-22T17:33:35;21.63;;;16.48;;
64560;SDS011;50960;46.838;16.838;2022-10-22T17:36:06;19.23;;;16.33;;
64560;SDS011;50960;46.838;16.838;2022-10-22T17:38:38;20.42;;;17.08;;
64560;SDS011;50960;46.838;16.838;2022-10-22T17:41:05;20.92;;;16.85;;
64560;SDS011;50960;46.838;16.838;2022-10-22T17:43:34;20.38;;;16.42;;
64560;SDS011;50960;46.838;16.838;2022-10-22T17:48:31;23.95;;;19.45;;
64560;SDS011;50960;46.838;16.838;2022-10-22T17:50:57;24.40;;;18.85;;
64560;SDS011;50960;46.838;16.838;2022-10-22T17:53:23;29.98;;;23.55;;
64560;SDS011;50960;46.838;16.838;2022-10-22T17:55:56;22.70;;;18.63;;
64560;SDS011;50960;46.838;16.838;2022-10-22T17:58:24;22.65;;;18.80;;
64560;SDS011;50960;46.838;16.838;2022-10-22T18:00:50;22.88;;;19.50;;
64560;SDS011;50960;46.838;16.838;2022-10-22T18:03:16;26.38;;;21.13;;
64560;SDS011;50960;46.838;16.838;2022-10-22T18:05:44;20.80;;;17.27;;
64560;SDS011;50960;46.838;16.838;2022-10-22T18:08:10;21.27;;;18.35;;
64560;SDS011;50960;46.838;16.838;2022-10-22T18:10:39;21.77;;;18.48;;
64560;SDS011;50960;46.838;16.838;2022-10-22T18:13:06;21.77;;;18.50;;
64560;SDS011;50960;46.838;16.838;2022-10-22T18:15:33;31.13;;;24.25;;
64560;SDS011;50960;46.838;16.838;2022-10-22T18:18:01;23.83;;;20.88;;
64560;SDS011;50960;46.838;16.838;2022-10-22T18:20:28;25.00;;;20.38;;
64560;SDS011;50960;46.838;16.838;2022-10-22T18:22:54;28.55;;;23.40;;
64560;SDS011;50960;46.838;16.838;2022-10-22T18:25:21;27.00;;;22.17;;
64560;SDS011;50960;46.838;16.838;2022-10-22T18:27:48;26.35;;;21.67;;
64560;SDS011;50960;46.838;16.838;2022-10-22T18:30:14;27.83;;;23.33;;
64560;SDS011;50960;46.838;16.838;2022-10-22T18:32:40;29.15;;;24.00;;
64560;SDS011;50960;46.838;16.838;2022-10-22T18:35:07;26.42;;;21.55;;
64560;SDS011;50960;46.838;16.838;2022-10-22T18:37:33;23.45;;;19.52;;
64560;SDS011;50960;46.838;16.838;2022-10-22T18:40:01;23.92;;;18.92;;
64560;SDS011;50960;46.838;16.838;2022-10-22T18:42:28;22.92;;;18.70;;
64560;SDS011;50960;46.838;16.838;2022-10-22T18:44:54;23.17;;;17.90;;
64560;SDS011;50960;46.838;16.838;2022-10-22T18:47:20;23.10;;;19.50;;
64560;SDS011;50960;46.838;16.838;2022-10-22T18:49:46;25.80;;;20.02;;
64560;SDS011;50960;46.838;16.838;2022-10-22T18:52:13;26.48;;;21.05;;
64560;SDS011;50960;46.838;16.838;2022-10-22T18:54:39;19.73;;;17.67;;
64560;SDS011;50960;46.838;16.838;2022-10-22T18:57:05;21.02;;;18.17;;
64560;SDS011;50960;46.838;16.838;2022-10-22T18:59:31;21.23;;;16.77;;
64560;SDS011;50960;46.838;16.838;2022-10-22T19:01:57;22.63;;;18.05;;
64560;SDS011;50960;46.838;16.838;2022-10-22T19:04:24;22.20;;;17.75;;
64560;SDS011;50960;46.838;16.838;2022-10-22T19:06:55;21.67;;;18.60;;
64560;SDS011;50960;46.838;16.838;2022-10-22T19:09:23;20.83;;;18.50;;
64560;SDS011;50960;46.838;16.838;2022-10-22T19:11:51;20.90;;;18.08;;
64560;SDS011;50960;46.838;16.838;2022-10-22T19:14:17;20.13;;;18.00;;